Time;durP1;ratioP1;P1;durP2;ratioP2;P2;SDS_P1;SDS_P2;PMS_P1;PMS_P2;Temp;Humidity;BMP_temperature;BMP_pressure;BME280_temperature;BME280_humidity;BME280_pressure;Samples;Min_cycle;Max_cycle;Signal;HPM_P1;HPM_P2
2022/04/07 00:00:46;;;;;;;2.80;2.10;;;13.00;1.00;;;;;;5102009;28;20603;-60
2022/04/07 00:03:12;;;;;;;3.00;1.73;;;12.90;1.00;;;;;;5103328;28;20228;-59
2022/04/07 00:05:38;;;;;;;3.47;2.47;;;;;;;;;;5097835;28;20222;-62
2022/04/07 00:08:04;;;;;;;4.97;2.37;;;13.00;1.00;;;;;;5101758;28;20183;-59
2022/04/07 00:10:30;;;;;;;3.77;2.00;;;13.00;1.00;;;;;;5102025;28;20447;-60
2022/04/07 00:12:55;;;;;;;2.47;2.00;;;12.90;1.00;;;;;;5100948;28;20759;-61
2022/04/07 00:15:23;;;;;;;3.23;1.93;;;12.80;1.00;;;;;;5103222;28;20186;-60
2022/04/07 00:17:48;;;;;;;3.40;2.10;;;12.80;1.00;;;;;;5107755;28;20336;-58
2022/04/07 00:20:14;;;;;;;2.70;2.43;;;12.90;1.00;;;;;;5103421;28;20573;-59
2022/04/07 00:22:41;;;;;;;2.60;1.73;;;12.80;1.00;;;;;;5105255;28;20186;-58
2022/04/07 00:25:07;;;;;;;3.93;2.33;;;12.70;1.00;;;;;;5092692;28;20290;-59
2022/04/07 00:27:32;;;;;;;3.17;2.07;;;12.70;1.00;;;;;;5102948;28;20478;-58
2022/04/07 00:29:58;;;;;;;2.60;1.73;;;;;;;;;;5102341;28;20459;-59
2022/04/07 00:32:24;;;;;;;4.37;2.10;;;;;;;;;;5097320;28;20193;-59
2022/04/07 00:34:54;;;;;;;3.40;2.23;;;12.70;1.00;;;;;;5105413;28;20451;-59
2022/04/07 00:37:23;;;;;;;6.90;2.47;;;12.40;1.00;;;;;;5110456;28;20471;-60
2022/04/07 00:39:50;;;;;;;4.83;2.13;;;12.30;1.00;;;;;;5099012;28;20501;-59
2022/04/07 00:42:16;;;;;;;4.03;1.80;;;12.30;1.00;;;;;;5107570;28;20475;-59
2022/04/07 00:44:41;;;;;;;3.00;2.10;;;12.30;1.00;;;;;;5104774;28;20436;-60
2022/04/07 00:47:07;;;;;;;2.63;2.27;;;12.30;1.00;;;;;;5104506;28;20844;-60
2022/04/07 00:49:33;;;;;;;2.13;1.80;;;12.50;1.00;;;;;;5105364;28;20182;-60
2022/04/07 00:52:00;;;;;;;3.07;1.90;;;12.50;1.00;;;;;;5110974;28;20421;-60
2022/04/07 00:54:26;;;;;;;2.50;1.80;;;12.70;1.00;;;;;;5104566;28;20312;-59
2022/04/07 00:56:55;;;;;;;2.87;1.77;;;12.60;1.00;;;;;;5105645;28;20498;-59
2022/04/07 00:59:23;;;;;;;3.10;1.83;;;12.60;1.00;;;;;;5103028;28;20532;-59
2022/04/07 01:01:49;;;;;;;3.00;1.90;;;12.70;1.00;;;;;;5111735;28;20436;-59
2022/04/07 01:04:16;;;;;;;5.53;2.00;;;12.60;1.00;;;;;;5104769;28;20475;-58
2022/04/07 01:06:43;;;;;;;1.50;1.40;;;12.50;1.00;;;;;;5098977;28;20455;-58
2022/04/07 01:09:11;;;;;;;4.10;1.90;;;12.60;1.00;;;;;;5104457;28;20539;-59
2022/04/07 01:11:40;;;;;;;2.50;2.27;;;12.60;1.00;;;;;;5102080;28;20459;-59
2022/04/07 01:14:06;;;;;;;3.33;1.63;;;;;;;;;;5101717;28;20467;-59
2022/04/07 01:16:32;;;;;;;4.83;1.80;;;12.60;1.00;;;;;;5110553;28;20829;-59
2022/04/07 01:18:59;;;;;;;4.20;1.73;;;12.60;1.00;;;;;;5106150;28;20503;-59
2022/04/07 01:21:26;;;;;;;3.83;1.93;;;12.60;1.00;;;;;;5102178;28;20446;-59
2022/04/07 01:24:04;;;;;;;3.93;2.10;;;12.70;1.00;;;;;;5104037;28;20445;-59
2022/04/07 01:26:37;;;;;;;2.50;1.67;;;12.50;1.00;;;;;;5112839;28;20461;-59
2022/04/07 01:29:04;;;;;;;2.23;2.03;;;12.60;1.00;;;;;;5101323;28;20431;-58
2022/04/07 01:31:31;;;;;;;2.70;1.70;;;;;;;;;;5103607;28;21245;-59
2022/04/07 01:33:58;;;;;;;4.23;2.27;;;12.50;1.00;;;;;;5103339;28;20474;-59
2022/04/07 01:36:27;;;;;;;3.10;2.40;;;12.50;1.00;;;;;;5105508;28;20542;-60
2022/04/07 01:38:55;;;;;;;4.60;2.10;;;12.40;1.00;;;;;;5100500;27;20444;-63
2022/04/07 01:41:21;;;;;;;2.27;1.63;;;12.40;1.00;;;;;;5099468;28;20448;-58
2022/04/07 01:43:49;;;;;;;3.50;2.07;;;12.30;1.00;;;;;;5100627;28;20447;-60
2022/04/07 01:46:15;;;;;;;2.33;2.13;;;12.30;1.00;;;;;;5095215;28;20182;-59
2022/04/07 01:48:42;;;;;;;2.23;1.90;;;12.30;1.00;;;;;;5101622;28;20447;-59
2022/04/07 01:51:10;;;;;;;2.30;2.10;;;12.30;1.00;;;;;;5102982;28;20767;-59
2022/04/07 01:53:37;;;;;;;5.63;2.10;;;12.30;1.00;;;;;;5108262;28;20467;-59
2022/04/07 01:56:06;;;;;;;2.43;1.70;;;12.30;1.00;;;;;;5099352;28;20493;-59
2022/04/07 01:58:32;;;;;;;3.27;2.07;;;12.30;1.00;;;;;;5098037;28;20918;-59
2022/04/07 02:00:58;;;;;;;4.00;1.63;;;12.30;1.00;;;;;;5103198;28;20831;-60
2022/04/07 02:03:24;;;;;;;3.93;1.53;;;12.30;1.00;;;;;;5107518;28;20475;-58
2022/04/07 02:05:49;;;;;;;2.20;1.83;;;12.40;1.00;;;;;;5101955;28;20194;-61
2022/04/07 02:08:15;;;;;;;1.93;1.50;;;12.30;1.00;;;;;;5103202;28;20225;-59
2022/04/07 02:10:40;;;;;;;1.70;1.33;;;12.40;1.00;;;;;;5108855;28;20186;-60
2022/04/07 02:13:06;;;;;;;3.13;2.20;;;12.40;1.00;;;;;;5103890;28;20242;-59
2022/04/07 02:15:31;;;;;;;2.50;1.80;;;12.30;1.00;;;;;;5104695;28;20187;-59
2022/04/07 02:17:57;;;;;;;2.83;1.77;;;12.20;1.00;;;;;;5105323;28;20662;-59
2022/04/07 02:20:26;;;;;;;3.00;2.37;;;12.30;1.00;;;;;;5104233;28;20516;-59
2022/04/07 02:22:52;;;;;;;2.43;2.20;;;;;;;;;;5108873;28;20182;-58
2022/04/07 02:25:22;;;;;;;2.87;2.40;;;12.40;1.00;;;;;;5105144;28;20436;-61
2022/04/07 02:27:48;;;;;;;6.50;2.23;;;12.30;1.00;;;;;;5097572;28;20439;-60
2022/04/07 02:30:14;;;;;;;3.07;1.90;;;12.50;1.00;;;;;;5104850;28;20448;-59
2022/04/07 02:32:41;;;;;;;2.23;1.57;;;12.50;1.00;;;;;;5104606;28;20264;-60
2022/04/07 02:35:07;;;;;;;2.73;1.90;;;12.50;1.00;;;;;;5102708;28;20440;-62
2022/04/07 02:37:33;;;;;;;2.67;1.87;;;12.50;1.00;;;;;;5105799;28;20432;-59
2022/04/07 02:39:58;;;;;;;1.77;1.67;;;12.40;1.00;;;;;;5107283;28;20435;-60
2022/04/07 02:42:24;;;;;;;1.70;1.60;;;12.50;1.00;;;;;;5106782;28;20278;-60
2022/04/07 02:44:50;;;;;;;2.60;1.63;;;12.60;1.00;;;;;;5101364;28;20167;-62
2022/04/07 02:47:15;;;;;;;2.07;1.60;;;12.60;1.00;;;;;;5101414;28;20252;-61
2022/04/07 02:49:41;;;;;;;4.00;1.90;;;12.40;1.00;;;;;;5111624;28;20439;-60
2022/04/07 02:52:08;;;;;;;1.83;1.40;;;12.60;1.00;;;;;;5107017;28;20619;-59
2022/04/07 02:54:34;;;;;;;1.97;1.40;;;12.60;1.00;;;;;;5102533;28;20470;-60
2022/04/07 02:57:00;;;;;;;3.73;1.60;;;12.60;1.00;;;;;;5101475;28;20498;-60
2022/04/07 02:59:25;;;;;;;1.60;1.50;;;;;;;;;;5103703;28;20555;-60
2022/04/07 03:01:56;;;;;;;2.20;1.40;;;12.50;1.00;;;;;;5103623;28;20182;-59
2022/04/07 03:04:25;;;;;;;1.73;1.60;;;12.60;1.00;;;;;;5110735;28;20503;-60
2022/04/07 03:06:52;;;;;;;1.60;1.50;;;12.50;1.00;;;;;;5109064;28;20472;-59
2022/04/07 03:09:19;;;;;;;1.50;1.40;;;12.50;1.00;;;;;;5099324;28;20483;-60
2022/04/07 03:11:46;;;;;;;3.53;1.70;;;12.40;1.00;;;;;;5097610;28;20466;-59
2022/04/07 03:14:12;;;;;;;3.40;1.70;;;12.30;1.00;;;;;;5107996;28;20466;-60
2022/04/07 03:16:38;;;;;;;1.60;1.50;;;12.20;1.00;;;;;;5104468;28;20535;-59
2022/04/07 03:19:04;;;;;;;1.73;1.60;;;;;;;;;;5099818;28;20538;-59
2022/04/07 03:21:29;;;;;;;2.13;1.43;;;12.30;1.00;;;;;;5099326;28;20605;-61
2022/04/07 03:23:55;;;;;;;3.53;1.60;;;12.30;1.00;;;;;;5104582;28;20518;-61
2022/04/07 03:26:20;;;;;;;2.07;1.40;;;12.30;1.00;;;;;;5100305;28;20719;-60
2022/04/07 03:28:46;;;;;;;4.07;1.67;;;12.20;1.00;;;;;;5104058;28;20201;-59
2022/04/07 03:31:11;;;;;;;1.80;1.50;;;12.20;1.00;;;;;;5105368;28;20200;-59
2022/04/07 03:33:37;;;;;;;3.67;1.50;;;12.10;1.00;;;;;;5099419;28;20228;-60
2022/04/07 03:36:06;;;;;;;2.00;1.40;;;12.20;1.00;;;;;;5099136;28;20204;-59
2022/04/07 03:38:32;;;;;;;2.10;1.40;;;;;;;;;;5097023;28;20448;-61
2022/04/07 03:40:57;;;;;;;2.57;1.90;;;12.20;1.00;;;;;;5101699;28;20481;-59
2022/04/07 03:43:23;;;;;;;2.07;1.60;;;12.20;1.00;;;;;;5099171;28;20440;-58
2022/04/07 03:45:49;;;;;;;1.60;1.50;;;12.10;1.00;;;;;;5102333;28;20285;-58
2022/04/07 03:48:14;;;;;;;3.70;1.60;;;12.10;1.00;;;;;;5099338;28;20190;-59
2022/04/07 03:50:40;;;;;;;2.00;1.80;;;12.00;1.00;;;;;;5107890;28;20186;-57
2022/04/07 03:53:06;;;;;;;2.37;1.83;;;12.10;1.00;;;;;;5104007;27;20229;-57
2022/04/07 03:55:32;;;;;;;2.80;1.60;;;;;;;;;;5104826;28;20443;-58
2022/04/07 03:58:00;;;;;;;3.07;2.53;;;;;;;;;;5107715;28;20182;-58
2022/04/07 04:00:27;;;;;;;4.10;2.10;;;12.10;1.00;;;;;;5101587;28;20810;-57
2022/04/07 04:02:52;;;;;;;2.93;1.43;;;12.10;1.00;;;;;;5109989;28;20506;-57
2022/04/07 04:05:18;;;;;;;2.73;1.57;;;12.00;1.00;;;;;;5106218;28;20511;-56
2022/04/07 04:07:44;;;;;;;4.53;2.00;;;12.00;1.00;;;;;;5107884;28;20223;-56
2022/04/07 04:10:10;;;;;;;4.43;2.33;;;11.90;1.00;;;;;;5100072;28;20921;-57
2022/04/07 04:12:36;;;;;;;1.50;1.40;;;;;;;;;;5101096;28;20209;-57
2022/04/07 04:15:02;;;;;;;2.70;2.20;;;12.00;1.00;;;;;;5106391;28;20611;-57
2022/04/07 04:17:31;;;;;;;3.83;2.87;;;12.10;1.00;;;;;;5099002;28;21524;-58
2022/04/07 04:19:57;;;;;;;2.67;1.60;;;12.10;1.00;;;;;;5103810;28;21262;-57
2022/04/07 04:22:23;;;;;;;2.37;1.90;;;12.10;1.00;;;;;;5100306;28;20433;-56
2022/04/07 04:24:48;;;;;;;2.07;1.80;;;12.10;1.00;;;;;;5107448;28;20436;-56
2022/04/07 04:27:14;;;;;;;2.40;1.83;;;12.00;1.00;;;;;;5109291;28;20207;-56
2022/04/07 04:29:41;;;;;;;1.90;1.80;;;12.10;1.00;;;;;;5101568;28;20175;-57
2022/04/07 04:32:07;;;;;;;2.70;2.50;;;12.20;1.00;;;;;;5101451;28;20435;-55
2022/04/07 04:34:32;;;;;;;4.00;2.43;;;12.20;1.00;;;;;;5104709;28;20881;-56
2022/04/07 04:36:58;;;;;;;1.90;1.80;;;12.20;1.00;;;;;;5109501;28;20478;-57
2022/04/07 04:39:24;;;;;;;1.87;1.63;;;12.30;1.00;;;;;;5104160;28;20210;-58
2022/04/07 04:41:50;;;;;;;1.83;1.60;;;;;;;;;;5106210;28;20269;-56
2022/04/07 04:44:16;;;;;;;1.43;1.33;;;12.50;1.00;;;;;;5102378;28;20532;-57
2022/04/07 04:46:42;;;;;;;1.43;1.10;;;12.40;1.00;;;;;;5105873;28;20447;-56
2022/04/07 04:49:07;;;;;;;1.40;1.30;;;12.50;1.00;;;;;;5096013;28;20183;-57
2022/04/07 04:51:33;;;;;;;1.37;1.27;;;12.40;1.00;;;;;;5101814;28;20444;-55
2022/04/07 04:53:59;;;;;;;2.50;1.40;;;12.40;1.00;;;;;;5098627;28;20201;-56
2022/04/07 04:56:27;;;;;;;2.30;1.73;;;12.30;1.00;;;;;;5105512;28;20293;-57
2022/04/07 04:58:57;;;;;;;1.70;1.30;;;12.40;1.00;;;;;;5102862;28;20683;-57
2022/04/07 05:01:23;;;;;;;1.93;1.30;;;12.40;1.00;;;;;;5104186;28;20474;-57
2022/04/07 05:03:48;;;;;;;2.30;1.90;;;12.60;1.00;;;;;;5109036;28;20532;-55
2022/04/07 05:06:14;;;;;;;2.20;1.87;;;12.50;1.00;;;;;;5095939;28;20447;-55
2022/04/07 05:08:39;;;;;;;1.83;1.50;;;12.60;1.00;;;;;;5096775;28;20206;-56
2022/04/07 05:11:05;;;;;;;1.73;1.37;;;12.60;1.00;;;;;;5098839;28;20198;-57
2022/04/07 05:13:30;;;;;;;2.03;1.83;;;12.70;1.00;;;;;;5095190;28;20597;-56
2022/04/07 05:15:56;;;;;;;1.70;1.60;;;12.80;1.00;;;;;;5106114;28;20297;-56
2022/04/07 05:18:21;;;;;;;1.90;1.40;;;12.80;1.00;;;;;;5099217;28;20195;-55
2022/04/07 05:20:47;;;;;;;1.07;1.00;;;12.90;1.00;;;;;;5096664;28;20187;-55
2022/04/07 05:23:12;;;;;;;1.37;1.27;;;12.80;1.00;;;;;;5108928;28;20181;-56
2022/04/07 05:25:38;;;;;;;1.07;0.90;;;12.80;1.00;;;;;;5108095;28;20536;-56
2022/04/07 05:28:06;;;;;;;1.30;1.20;;;13.00;1.00;;;;;;5112010;28;20681;-56
2022/04/07 05:30:32;;;;;;;1.17;0.93;;;;;;;;;;5096569;28;20470;-56
2022/04/07 05:32:58;;;;;;;1.00;0.90;;;13.00;1.00;;;;;;5095344;28;20494;-56
2022/04/07 05:35:32;;;;;;;2.03;1.40;;;13.00;1.00;;;;;;5106334;28;20451;-56
2022/04/07 05:38:02;;;;;;;2.27;1.30;;;13.10;1.00;;;;;;5101330;28;20656;-57
2022/04/07 05:40:28;;;;;;;2.03;1.23;;;13.10;1.00;;;;;;5113785;28;20436;-55
2022/04/07 05:42:54;;;;;;;2.47;1.40;;;13.20;1.00;;;;;;5098138;28;20432;-58
2022/04/07 05:45:20;;;;;;;1.30;1.20;;;13.20;1.00;;;;;;5096904;28;20609;-56
2022/04/07 05:47:46;;;;;;;2.00;1.30;;;13.20;1.00;;;;;;5105960;28;20432;-56
2022/04/07 05:50:12;;;;;;;1.70;1.20;;;13.40;1.00;;;;;;5105326;28;20441;-57
2022/04/07 05:52:38;;;;;;;4.90;1.50;;;13.60;1.00;;;;;;5102300;28;20274;-57
2022/04/07 05:55:04;;;;;;;1.70;1.10;;;13.60;1.00;;;;;;5109040;28;20182;-57
2022/04/07 05:57:30;;;;;;;3.70;1.10;;;;;;;;;;5108224;28;20577;-56
2022/04/07 06:00:13;;;;;;;1.67;1.20;;;13.60;1.00;;;;;;5094404;28;20883;-56
2022/04/07 06:02:40;;;;;;;11.33;2.60;;;13.60;1.00;;;;;;5097572;28;20873;-55
2022/04/07 06:05:07;;;;;;;1.60;1.33;;;13.60;1.00;;;;;;5099437;28;20797;-55
2022/04/07 06:07:32;;;;;;;4.20;1.43;;;13.70;1.00;;;;;;5095909;28;20486;-55
2022/04/07 06:09:58;;;;;;;1.50;1.40;;;13.70;1.00;;;;;;5100459;28;20849;-56
2022/04/07 06:12:24;;;;;;;1.60;1.50;;;;;;;;;;5107260;28;20177;-55
2022/04/07 06:14:49;;;;;;;1.10;1.00;;;13.50;1.00;;;;;;5094793;28;20683;-57
2022/04/07 06:17:15;;;;;;;1.10;0.90;;;13.70;1.00;;;;;;5107873;28;20436;-56
2022/04/07 06:19:41;;;;;;;1.47;0.83;;;13.80;1.00;;;;;;5112533;28;20189;-58
2022/04/07 06:22:07;;;;;;;2.40;0.83;;;13.90;1.00;;;;;;5100364;28;20182;-56
2022/04/07 06:24:34;;;;;;;1.30;0.90;;;14.00;1.00;;;;;;5105224;28;20190;-56
2022/04/07 06:27:00;;;;;;;1.30;1.00;;;14.10;1.00;;;;;;5110994;28;20454;-56
2022/04/07 06:29:25;;;;;;;1.87;0.90;;;14.00;1.00;;;;;;5100961;28;20942;-56
2022/04/07 06:31:52;;;;;;;3.47;1.10;;;;;;;;;;5103046;28;20497;-56
2022/04/07 06:34:18;;;;;;;1.53;1.00;;;14.10;1.00;;;;;;5096161;27;20206;-55
2022/04/07 06:36:43;;;;;;;1.10;1.00;;;14.20;1.00;;;;;;5093007;28;20436;-56
2022/04/07 06:39:09;;;;;;;0.90;0.90;;;14.20;1.00;;;;;;5109182;28;20190;-57
2022/04/07 06:41:35;;;;;;;1.00;0.90;;;14.30;1.00;;;;;;5103453;28;20228;-56
2022/04/07 06:44:00;;;;;;;2.20;0.83;;;14.40;1.00;;;;;;5106247;28;20193;-59
2022/04/07 06:46:26;;;;;;;1.10;1.00;;;14.40;1.00;;;;;;5099925;28;20647;-57
2022/04/07 06:48:51;;;;;;;1.00;0.90;;;14.50;1.00;;;;;;5098845;28;20232;-57
2022/04/07 06:51:17;;;;;;;1.00;0.90;;;14.50;1.00;;;;;;5092771;28;20480;-57
2022/04/07 06:53:43;;;;;;;1.17;0.70;;;14.60;1.00;;;;;;5111139;28;20206;-57
2022/04/07 06:56:10;;;;;;;0.87;0.70;;;14.50;1.00;;;;;;5109158;28;20447;-57
2022/04/07 06:58:35;;;;;;;0.80;0.80;;;14.70;1.00;;;;;;5111161;28;20185;-56
2022/04/07 07:01:01;;;;;;;1.40;0.80;;;14.70;1.00;;;;;;5111553;28;20439;-57
2022/04/07 07:03:28;;;;;;;0.77;0.77;;;14.80;1.00;;;;;;5111696;28;20229;-57
2022/04/07 07:05:58;;;;;;;0.90;0.90;;;14.80;1.00;;;;;;5093127;28;20191;-57
2022/04/07 07:08:24;;;;;;;1.10;0.90;;;14.70;1.00;;;;;;5091134;28;20426;-57
2022/04/07 07:10:51;;;;;;;0.80;0.73;;;14.60;1.00;;;;;;5103895;28;20472;-55
2022/04/07 07:13:20;;;;;;;1.10;0.87;;;14.60;1.00;;;;;;5111802;28;20565;-57
2022/04/07 07:15:46;;;;;;;0.83;0.83;;;14.80;1.00;;;;;;5097691;28;20510;-57
2022/04/07 07:18:11;;;;;;;1.00;0.70;;;14.70;1.00;;;;;;5091688;28;20429;-58
2022/04/07 07:20:37;;;;;;;1.33;0.80;;;14.70;1.00;;;;;;5091206;28;20425;-57
2022/04/07 07:23:03;;;;;;;1.23;0.80;;;14.70;1.00;;;;;;5091223;28;20186;-58
2022/04/07 07:25:31;;;;;;;0.60;0.60;;;14.70;1.00;;;;;;5090850;28;20205;-56
2022/04/07 07:28:00;;;;;;;0.67;0.60;;;14.70;1.00;;;;;;5090991;28;20185;-57
2022/04/07 07:30:27;;;;;;;1.50;0.80;;;14.70;1.00;;;;;;5091033;28;20771;-56
2022/04/07 07:32:54;;;;;;;0.83;0.67;;;14.60;1.00;;;;;;5090885;28;20460;-55
2022/04/07 07:35:21;;;;;;;0.70;0.70;;;14.70;1.00;;;;;;5090881;28;20441;-56
2022/04/07 07:37:50;;;;;;;1.33;0.70;;;14.90;1.00;;;;;;5090502;28;20426;-56
2022/04/07 07:40:16;;;;;;;0.90;0.60;;;14.90;1.00;;;;;;5095175;28;20457;-57
2022/04/07 07:42:42;;;;;;;1.53;0.60;;;15.00;1.00;;;;;;5110933;28;20440;-55
2022/04/07 07:45:08;;;;;;;0.70;0.70;;;14.90;1.00;;;;;;5110611;28;20942;-56
2022/04/07 07:47:34;;;;;;;0.93;0.57;;;14.90;1.00;;;;;;5110973;28;20178;-56
2022/04/07 07:50:00;;;;;;;0.63;0.63;;;14.90;1.00;;;;;;5105191;28;20447;-57
2022/04/07 07:52:26;;;;;;;1.00;0.50;;;15.10;1.00;;;;;;5111049;28;20439;-56
2022/04/07 07:54:51;;;;;;;1.20;0.63;;;15.30;1.00;;;;;;5110841;28;20465;-56
2022/04/07 07:57:19;;;;;;;1.93;0.60;;;15.50;1.00;;;;;;5096972;28;20232;-55
2022/04/07 07:59:45;;;;;;;0.97;0.60;;;15.60;1.00;;;;;;5090399;28;20576;-56
2022/04/07 08:02:10;;;;;;;0.63;0.63;;;15.70;1.00;;;;;;5090628;28;20464;-55
2022/04/07 08:04:36;;;;;;;0.70;0.50;;;15.90;1.00;;;;;;5090280;28;20650;-56
2022/04/07 08:07:03;;;;;;;0.67;0.60;;;15.80;1.00;;;;;;5092728;28;20707;-58
2022/04/07 08:09:28;;;;;;;1.43;1.00;;;15.50;1.00;;;;;;5105684;28;20435;-57
2022/04/07 08:11:54;;;;;;;0.60;0.60;;;15.50;1.00;;;;;;5110270;28;20431;-56
2022/04/07 08:14:20;;;;;;;1.27;0.50;;;15.60;1.00;;;;;;5109221;28;20209;-56
2022/04/07 08:16:45;;;;;;;0.50;0.50;;;15.60;1.00;;;;;;5110707;28;20561;-58
2022/04/07 08:19:11;;;;;;;0.40;0.40;;;15.90;1.00;;;;;;5110886;28;20639;-59
2022/04/07 08:21:37;;;;;;;0.67;0.60;;;16.20;1.00;;;;;;5110149;28;20184;-55
2022/04/07 08:24:03;;;;;;;1.20;0.60;;;16.40;1.00;;;;;;5091191;28;20205;-56
2022/04/07 08:26:29;;;;;;;0.60;0.50;;;16.50;1.00;;;;;;5090292;28;20790;-57
2022/04/07 08:28:54;;;;;;;1.70;0.70;;;16.70;1.00;;;;;;5090096;28;20424;-58
2022/04/07 08:31:20;;;;;;;0.57;0.40;;;16.70;1.00;;;;;;5090305;28;20175;-56
2022/04/07 08:33:45;;;;;;;0.77;0.40;;;16.20;1.00;;;;;;5095099;28;20202;-57
2022/04/07 08:36:11;;;;;;;0.77;0.40;;;16.20;1.00;;;;;;5091543;28;20178;-56
2022/04/07 08:38:36;;;;;;;2.60;0.50;;;16.50;1.00;;;;;;5090070;28;20186;-57
2022/04/07 08:41:08;;;;;;;1.20;0.80;;;16.90;1.00;;;;;;5089762;28;20183;-57
2022/04/07 08:43:38;;;;;;;9.03;0.90;;;17.00;1.00;;;;;;5090255;28;20187;-55
2022/04/07 08:46:08;;;;;;;1.30;0.77;;;16.80;1.00;;;;;;5089845;28;20423;-56
2022/04/07 08:48:37;;;;;;;1.93;0.63;;;16.40;1.00;;;;;;5090304;28;20444;-56
2022/04/07 08:51:06;;;;;;;1.43;0.73;;;16.10;1.00;;;;;;5094929;28;20782;-57
2022/04/07 08:53:33;;;;;;;0.50;0.40;;;16.00;1.00;;;;;;5105354;28;20453;-55
2022/04/07 08:56:07;;;;;;;1.30;0.50;;;16.20;1.00;;;;;;5090775;28;20484;-57
2022/04/07 08:58:33;;;;;;;2.30;0.60;;;16.30;1.00;;;;;;5104780;28;20407;-57
2022/04/07 09:01:07;;;;;;;1.10;0.60;;;16.40;1.00;;;;;;5098935;28;20447;-56
2022/04/07 09:03:33;;;;;;;0.60;0.40;;;16.70;1.00;;;;;;5093645;28;20313;-55
2022/04/07 09:06:00;;;;;;;0.77;0.47;;;16.70;1.00;;;;;;5096316;28;20593;-56
2022/04/07 09:08:33;;;;;;;0.40;0.40;;;16.70;1.00;;;;;;5114339;28;20182;-56
2022/04/07 09:11:00;;;;;;;0.87;0.40;;;14.40;1.00;;;;;;5114194;28;20442;-57
2022/04/07 09:13:39;;;;;;;0.70;0.60;;;16.90;1.00;;;;;;5113837;28;20805;-56
2022/04/07 09:16:13;;;;;;;0.87;0.50;;;16.70;1.00;;;;;;5113711;28;20549;-55
2022/04/07 09:18:44;;;;;;;0.93;0.93;;;16.80;1.00;;;;;;5113881;28;20464;-55
2022/04/07 09:21:24;;;;;;;1.13;0.50;;;17.00;1.00;;;;;;5111566;28;20444;-57
2022/04/07 09:23:52;;;;;;;0.63;0.47;;;17.30;1.00;;;;;;5112884;28;20488;-56
2022/04/07 09:26:17;;;;;;;1.07;0.33;;;17.30;1.00;;;;;;5106088;28;20415;-57
2022/04/07 09:28:43;;;;;;;0.60;0.60;;;17.50;1.00;;;;;;5093340;28;20933;-57
2022/04/07 09:31:16;;;;;;;1.67;0.70;;;17.80;1.00;;;;;;5101629;28;20181;-56
2022/04/07 09:33:42;;;;;;;0.60;0.40;;;17.90;1.00;;;;;;5113515;28;20209;-56
2022/04/07 09:36:21;;;;;;;0.77;0.67;;;17.90;1.00;;;;;;5113488;28;20955;-57
2022/04/07 09:38:54;;;;;;;1.27;0.50;;;17.90;1.00;;;;;;5108777;28;20447;-56
2022/04/07 09:41:21;;;;;;;1.27;0.50;;;18.20;1.00;;;;;;5113210;28;20420;-58
2022/04/07 09:43:53;;;;;;;0.83;0.50;;;18.50;1.00;;;;;;5113411;28;20491;-58
2022/04/07 09:46:21;;;;;;;0.67;0.40;;;18.10;1.00;;;;;;5111866;28;20443;-57
2022/04/07 09:49:09;;;;;;;1.27;0.50;;;17.90;1.00;;;;;;5105160;28;20465;-56
2022/04/07 09:51:40;;;;;;;0.67;0.50;;;17.80;1.00;;;;;;5112680;28;20428;-58
2022/04/07 09:54:11;;;;;;;0.70;0.50;;;17.60;1.00;;;;;;5101206;27;20470;-57
2022/04/07 09:56:37;;;;;;;2.30;0.40;;;17.60;1.00;;;;;;5111546;28;20588;-55
2022/04/07 09:59:07;;;;;;;0.50;0.40;;;17.60;1.00;;;;;;5097759;28;20476;-56
2022/04/07 10:01:34;;;;;;;2.40;0.60;;;17.50;1.00;;;;;;5092278;28;20432;-57
2022/04/07 10:04:01;;;;;;;0.80;0.50;;;17.50;1.00;;;;;;5092395;28;20460;-57
2022/04/07 10:06:27;;;;;;;0.60;0.40;;;17.50;1.00;;;;;;5092405;28;20515;-56
2022/04/07 10:08:52;;;;;;;0.40;0.30;;;17.50;1.00;;;;;;5092891;28;20535;-57
2022/04/07 10:11:18;;;;;;;1.77;0.60;;;17.30;1.00;;;;;;5104249;28;20206;-56
2022/04/07 10:13:45;;;;;;;0.50;0.47;;;17.40;1.00;;;;;;5092340;28;20869;-55
2022/04/07 10:16:12;;;;;;;0.83;0.67;;;;;;;;;;5092481;28;20512;-58
2022/04/07 10:18:54;;;;;;;0.50;0.40;;;17.60;1.00;;;;;;5104135;28;20444;-56
2022/04/07 10:21:30;;;;;;;0.50;0.40;;;17.80;1.00;;;;;;5112708;28;20465;-56
2022/04/07 10:24:28;;;;;;;0.80;0.60;;;17.80;1.00;;;;;;5111791;28;20435;-57
2022/04/07 10:26:55;;;;;;;1.43;0.60;;;17.60;1.00;;;;;;5111463;28;20505;-57
2022/04/07 10:29:22;;;;;;;0.67;0.50;;;;;;;;;;5112433;28;20450;-57
2022/04/07 10:32:12;;;;;;;1.07;0.40;;;17.60;1.00;;;;;;5112231;28;20478;-56
2022/04/07 10:34:42;;;;;;;0.93;0.40;;;17.50;1.00;;;;;;5111994;28;20471;-59
2022/04/07 10:37:09;;;;;;;0.70;0.40;;;17.60;1.00;;;;;;5112114;28;20506;-56
2022/04/07 10:39:35;;;;;;;2.83;0.60;;;17.80;1.00;;;;;;5112193;28;20511;-56
2022/04/07 10:42:01;;;;;;;0.60;0.50;;;17.70;1.00;;;;;;5112275;28;21315;-56
2022/04/07 10:44:27;;;;;;;0.50;0.30;;;17.60;1.00;;;;;;5103877;28;20174;-56
2022/04/07 10:47:08;;;;;;;0.40;0.33;;;17.50;1.00;;;;;;5091604;28;20957;-56
2022/04/07 10:49:34;;;;;;;0.60;0.60;;;17.40;1.00;;;;;;5107510;28;20439;-57
2022/04/07 10:52:05;;;;;;;0.80;0.60;;;17.50;1.00;;;;;;5104954;28;20840;-57
2022/04/07 10:54:30;;;;;;;0.63;0.50;;;17.50;1.00;;;;;;5111879;28;20463;-58
2022/04/07 10:56:59;;;;;;;0.40;0.37;;;17.90;1.00;;;;;;5109985;28;20499;-58
2022/04/07 10:59:31;;;;;;;1.00;0.50;;;17.80;1.00;;;;;;5091715;28;20171;-57
2022/04/07 11:02:05;;;;;;;0.60;0.47;;;17.80;1.00;;;;;;5093202;28;20447;-57
2022/04/07 11:04:35;;;;;;;0.60;0.40;;;17.70;1.00;;;;;;5111808;28;20463;-55
2022/04/07 11:09:53;;;;;;;0.40;0.37;;;17.50;1.00;;;;;;5107605;28;20436;-57
2022/04/07 11:12:31;;;;;;;0.40;0.30;;;17.60;1.00;;;;;;5091436;28;20435;-56
2022/04/07 11:15:05;;;;;;;0.50;0.40;;;17.70;1.00;;;;;;5090997;28;20439;-57
2022/04/07 11:17:32;;;;;;;1.10;0.33;;;17.70;1.00;;;;;;5093796;28;20421;-56
2022/04/07 11:19:58;;;;;;;0.50;0.37;;;17.80;1.00;;;;;;5099146;28;20819;-58
2022/04/07 11:22:44;;;;;;;0.93;0.50;;;18.10;1.00;;;;;;5091058;28;20441;-56
2022/04/07 11:25:10;;;;;;;0.43;0.40;;;;;;;;;;5091037;28;20190;-57
2022/04/07 11:27:38;;;;;;;0.40;0.40;;;18.10;1.00;;;;;;5105924;28;21066;-57
2022/04/07 11:30:05;;;;;;;0.50;0.50;;;18.00;1.00;;;;;;5106766;28;20508;-60
2022/04/07 11:32:31;;;;;;;0.70;0.50;;;18.20;1.00;;;;;;5107545;28;20435;-57
2022/04/07 11:35:00;;;;;;;0.70;0.53;;;;;;;;;;5110988;28;20785;-58
2022/04/07 11:37:26;;;;;;;1.03;0.50;;;18.50;1.00;;;;;;5111235;28;20178;-56
2022/04/07 11:39:53;;;;;;;3.33;0.57;;;;;;;;;;5111109;28;21017;-56
2022/04/07 11:42:21;;;;;;;0.80;0.47;;;18.40;1.00;;;;;;5111006;28;20434;-56
2022/04/07 11:44:47;;;;;;;0.83;0.40;;;18.20;1.00;;;;;;5110823;28;20431;-57
2022/04/07 11:47:34;;;;;;;0.63;0.63;;;18.00;1.00;;;;;;5111050;28;20428;-55
2022/04/07 11:50:07;;;;;;;2.60;0.77;;;18.10;1.00;;;;;;5109238;28;20449;-57
2022/04/07 11:52:35;;;;;;;0.80;0.60;;;18.60;1.00;;;;;;5103572;28;20781;-57
2022/04/07 11:55:03;;;;;;;2.13;0.70;;;18.40;1.00;;;;;;5109935;28;20467;-56
2022/04/07 11:57:30;;;;;;;0.67;0.50;;;18.40;1.00;;;;;;5110951;28;20443;-57
2022/04/07 12:00:01;;;;;;;2.20;0.60;;;18.30;1.00;;;;;;5110769;28;21002;-55
2022/04/07 12:02:27;;;;;;;1.17;0.30;;;18.10;1.00;;;;;;5107440;28;20518;-57
2022/04/07 12:04:57;;;;;;;0.60;0.40;;;18.10;1.00;;;;;;5088979;28;20448;-56
2022/04/07 12:07:23;;;;;;;0.50;0.40;;;17.90;1.00;;;;;;5090352;28;20422;-55
2022/04/07 12:09:49;;;;;;;2.63;0.40;;;17.80;1.00;;;;;;5090439;28;20514;-57
2022/04/07 12:12:16;;;;;;;0.50;0.40;;;17.80;1.00;;;;;;5089989;28;20236;-57
2022/04/07 12:14:43;;;;;;;1.60;0.50;;;17.80;1.00;;;;;;5090231;28;20464;-56
2022/04/07 12:17:11;;;;;;;3.50;0.70;;;17.80;1.00;;;;;;5090008;28;20798;-57
2022/04/07 12:19:47;;;;;;;0.53;0.40;;;17.60;1.00;;;;;;5099939;28;20510;-56
2022/04/07 12:22:15;;;;;;;1.20;0.40;;;17.50;1.00;;;;;;5089923;28;20543;-57
2022/04/07 12:25:00;;;;;;;0.40;0.30;;;17.60;1.00;;;;;;5089639;28;20997;-57
2022/04/07 12:27:34;;;;;;;1.57;0.50;;;17.40;1.00;;;;;;5107262;28;20781;-55
2022/04/07 12:30:01;;;;;;;0.60;0.47;;;18.10;1.00;;;;;;5110463;28;20476;-56
2022/04/07 12:32:40;;;;;;;0.70;0.40;;;18.40;1.00;;;;;;5095087;28;20901;-56
2022/04/07 12:35:06;;;;;;;0.67;0.40;;;18.80;1.00;;;;;;5094112;28;20411;-57
2022/04/07 12:37:34;;;;;;;1.47;0.30;;;18.90;1.00;;;;;;5097570;28;20775;-57
2022/04/07 12:40:26;;;;;;;3.23;0.63;;;18.20;1.00;;;;;;5106381;28;20183;-57
2022/04/07 12:42:54;;;;;;;1.37;0.40;;;17.90;1.00;;;;;;5099170;28;20439;-58
2022/04/07 12:45:20;;;;;;;0.50;0.30;;;17.90;1.00;;;;;;5113068;28;20431;-57
2022/04/07 12:48:05;;;;;;;0.70;0.40;;;17.90;1.00;;;;;;5094105;28;20440;-58
2022/04/07 12:50:32;;;;;;;0.40;0.30;;;18.00;1.00;;;;;;5093433;28;20428;-58
2022/04/07 12:52:58;;;;;;;1.07;0.60;;;;;;;;;;5094121;28;20490;-56
2022/04/07 12:55:38;;;;;;;0.90;0.40;;;18.10;1.00;;;;;;5102091;28;20410;-57
2022/04/07 12:58:04;;;;;;;0.60;0.30;;;18.10;1.00;;;;;;5109370;28;20436;-57
2022/04/07 13:00:31;;;;;;;0.70;0.30;;;18.10;1.00;;;;;;5105305;28;20486;-58
2022/04/07 13:03:01;;;;;;;0.40;0.40;;;18.10;1.00;;;;;;5093803;28;20499;-57
2022/04/07 13:05:29;;;;;;;1.00;0.40;;;18.00;1.00;;;;;;5093867;28;20436;-57
2022/04/07 13:07:56;;;;;;;0.50;0.30;;;17.60;1.00;;;;;;5093778;28;20594;-58